Time;durP1;ratioP1;P1;durP2;ratioP2;P2;SDS_P1;SDS_P2;PMS_P1;PMS_P2;Temp;Humidity;BMP_temperature;BMP_pressure;BME280_temperature;BME280_humidity;BME280_pressure;Samples;Min_cycle;Max_cycle;Signal;HPM_P1;HPM_P2
2023/04/30 00:00:14;;;;;;;1.70;1.60;;;19.30;71.80;;;;;;5032625;28;20032;-70
2023/04/30 00:02:40;;;;;;;1.65;1.55;;;19.30;71.70;;;;;;4999057;28;20094;-70
2023/04/30 00:05:06;;;;;;;2.80;1.92;;;19.30;71.70;;;;;;5033050;28;20029;-70
2023/04/30 00:07:31;;;;;;;1.70;1.60;;;19.30;71.70;;;;;;5041826;28;20028;-70
2023/04/30 00:09:57;;;;;;;1.80;1.70;;;19.30;71.70;;;;;;5052854;28;20372;-70
2023/04/30 00:12:23;;;;;;;1.80;1.70;;;19.30;71.60;;;;;;5051628;28;20021;-70
2023/04/30 00:14:48;;;;;;;1.90;1.80;;;19.30;71.70;;;;;;5051470;28;20025;-70
2023/04/30 00:17:16;;;;;;;1.75;1.65;;;19.30;71.70;;;;;;5052671;28;20029;-74
2023/04/30 00:19:42;;;;;;;1.70;1.60;;;19.40;71.80;;;;;;5052774;28;20085;-74
2023/04/30 00:22:08;;;;;;;2.03;1.80;;;19.50;71.50;;;;;;5051246;28;20021;-74
2023/04/30 00:24:33;;;;;;;1.60;1.50;;;19.60;71.10;;;;;;5051492;28;20104;-75
2023/04/30 00:26:59;;;;;;;1.60;1.50;;;19.70;71.10;;;;;;5045005;28;20018;-74
2023/04/30 00:29:24;;;;;;;1.75;1.52;;;19.70;70.90;;;;;;5047051;28;20082;-74
2023/04/30 00:31:50;;;;;;;1.90;1.80;;;19.90;71.00;;;;;;5034340;28;20480;-74
2023/04/30 00:34:16;;;;;;;1.73;1.63;;;19.80;70.80;;;;;;5034598;28;20044;-74
2023/04/30 00:36:41;;;;;;;1.55;1.45;;;19.90;70.80;;;;;;5052370;28;20111;-74
2023/04/30 00:39:07;;;;;;;1.55;1.45;;;19.90;70.80;;;;;;5052561;28;20056;-74
2023/04/30 00:41:34;;;;;;;1.48;1.40;;;20.00;70.80;;;;;;5051112;28;20096;-74
2023/04/30 00:44:01;;;;;;;1.70;1.60;;;20.00;70.80;;;;;;5041527;28;20036;-74
2023/04/30 00:46:27;;;;;;;1.80;1.48;;;20.00;70.70;;;;;;5036321;28;20116;-74
2023/04/30 00:48:52;;;;;;;1.60;1.50;;;20.10;70.70;;;;;;5036522;28;20060;-75
2023/04/30 00:51:19;;;;;;;1.50;1.40;;;20.10;70.60;;;;;;5023284;28;20058;-76
2023/04/30 00:53:44;;;;;;;1.58;1.48;;;20.10;70.70;;;;;;5029686;28;20545;-76
2023/04/30 00:56:10;;;;;;;11.25;1.73;;;20.10;71.00;;;;;;5034144;28;20054;-75
2023/04/30 00:58:35;;;;;;;1.95;1.67;;;20.00;71.20;;;;;;5034290;28;20100;-75
2023/04/30 01:01:02;;;;;;;5.90;1.63;;;19.90;71.50;;;;;;5034158;28;20476;-75
2023/04/30 01:03:28;;;;;;;3.90;1.52;;;19.90;71.80;;;;;;5032748;28;20060;-77
2023/04/30 01:05:53;;;;;;;2.60;1.27;;;19.90;71.80;;;;;;5033963;28;20091;-76
2023/04/30 01:08:19;;;;;;;1.60;1.50;;;19.90;72.00;;;;;;5032957;28;20029;-76
2023/04/30 01:10:52;;;;;;;3.17;1.40;;;19.80;72.00;;;;;;5032728;28;20021;-76
2023/04/30 01:13:39;;;;;;;1.73;1.63;;;19.80;72.10;;;;;;5032753;28;20033;-76
2023/04/30 01:16:06;;;;;;;2.00;1.52;;;19.80;72.20;;;;;;5066597;28;20037;-76
2023/04/30 01:18:46;;;;;;;1.70;1.60;;;19.80;72.30;;;;;;5034962;28;20084;-75
2023/04/30 01:21:12;;;;;;;1.67;1.58;;;19.70;72.40;;;;;;5034032;28;20025;-75
2023/04/30 01:23:47;;;;;;;1.75;1.65;;;19.70;72.50;;;;;;5034772;28;20364;-75
2023/04/30 01:26:13;;;;;;;1.63;1.52;;;19.70;72.70;;;;;;5032730;28;20021;-75
2023/04/30 01:28:41;;;;;;;1.55;1.45;;;19.70;72.70;;;;;;5033713;28;20036;-75
2023/04/30 01:31:17;;;;;;;1.65;1.55;;;19.70;72.70;;;;;;5017080;28;20419;-75
2023/04/30 01:33:43;;;;;;;1.63;1.52;;;19.60;72.90;;;;;;5034799;28;20424;-76
2023/04/30 01:36:53;;;;;;;1.50;1.40;;;19.50;73.00;;;;;;5033648;28;20117;-76
2023/04/30 01:39:42;;;;;;;1.60;1.50;;;19.50;73.10;;;;;;5035178;28;20415;-75
2023/04/30 01:42:10;;;;;;;1.80;1.70;;;19.50;73.20;;;;;;5034623;28;20029;-75
2023/04/30 01:44:57;;;;;;;3.22;1.90;;;19.50;73.20;;;;;;5033508;28;20036;-76
2023/04/30 01:47:45;;;;;;;1.63;1.52;;;19.50;73.30;;;;;;5031452;28;20083;-76
2023/04/30 01:50:43;;;;;;;3.25;1.90;;;19.50;73.50;;;;;;5013715;28;20030;-76
2023/04/30 01:53:15;;;;;;;1.50;1.48;;;19.50;73.60;;;;;;5007068;28;20041;-76
2023/04/30 01:55:41;;;;;;;;;;;19.40;73.50;;;;;;5032908;28;20026;-76
2023/04/30 01:58:09;;;;;;;2.00;1.90;;;19.40;73.40;;;;;;5034469;28;19909;-76
2023/04/30 02:00:35;;;;;;;1.77;1.67;;;19.40;73.60;;;;;;5033048;28;20029;-76
2023/04/30 02:03:00;;;;;;;1.88;1.77;;;19.40;73.70;;;;;;5016678;28;20029;-75
2023/04/30 02:05:26;;;;;;;2.20;2.10;;;19.30;73.70;;;;;;5034186;28;20120;-76
2023/04/30 02:07:52;;;;;;;1.88;1.77;;;19.30;73.70;;;;;;5034146;28;20079;-76
2023/04/30 02:10:21;;;;;;;1.95;1.85;;;19.30;73.80;;;;;;5016721;28;20067;-76
2023/04/30 02:12:47;;;;;;;2.47;2.28;;;19.30;73.90;;;;;;5016924;28;20511;-75
2023/04/30 02:15:13;;;;;;;2.10;2.00;;;19.30;73.90;;;;;;5034080;28;20049;-76
2023/04/30 02:17:38;;;;;;;1.85;1.75;;;19.30;74.00;;;;;;5016149;28;20033;-75
2023/04/30 02:20:04;;;;;;;2.25;2.08;;;19.20;74.00;;;;;;5033906;28;20025;-76
2023/04/30 02:22:30;;;;;;;2.03;1.92;;;19.20;74.10;;;;;;5032732;28;20029;-75
2023/04/30 02:24:56;;;;;;;2.30;2.10;;;19.20;74.10;;;;;;5033843;28;20026;-76
2023/04/30 02:27:23;;;;;;;1.95;1.85;;;19.20;74.10;;;;;;5033879;28;20031;-76
2023/04/30 02:29:49;;;;;;;1.77;1.67;;;19.20;74.30;;;;;;5032652;28;20021;-76
2023/04/30 02:32:14;;;;;;;2.53;2.33;;;19.20;74.30;;;;;;5032575;28;20060;-76
2023/04/30 02:34:40;;;;;;;2.00;1.90;;;19.20;74.40;;;;;;5016195;28;20436;-76
2023/04/30 02:37:06;;;;;;;2.00;1.90;;;19.20;74.30;;;;;;5033711;28;20037;-76
2023/04/30 02:39:32;;;;;;;2.05;1.95;;;19.10;74.50;;;;;;5033595;28;20024;-76
2023/04/30 02:41:58;;;;;;;2.25;2.13;;;19.10;74.30;;;;;;5032414;28;20030;-75
2023/04/30 02:44:23;;;;;;;2.30;2.10;;;19.10;74.60;;;;;;5032261;28;20024;-76
2023/04/30 02:46:49;;;;;;;2.20;2.05;;;19.10;74.60;;;;;;5015494;28;20029;-76
2023/04/30 02:49:15;;;;;;;2.35;2.25;;;19.10;74.80;;;;;;5033414;28;20018;-75
2023/04/30 02:51:41;;;;;;;2.05;1.95;;;19.10;75.10;;;;;;5033467;28;20373;-76
2023/04/30 02:54:06;;;;;;;2.17;2.08;;;19.10;75.10;;;;;;5033280;28;20044;-75
2023/04/30 02:56:32;;;;;;;2.72;2.45;;;19.10;75.00;;;;;;5032883;28;20076;-75
2023/04/30 02:58:57;;;;;;;2.00;1.90;;;19.10;75.20;;;;;;5032135;28;20453;-75
2023/04/30 03:01:23;;;;;;;2.13;2.03;;;19.10;75.20;;;;;;5032833;28;20565;-75
2023/04/30 03:03:49;;;;;;;2.28;1.95;;;19.10;75.20;;;;;;5033024;28;20093;-75
2023/04/30 03:06:14;;;;;;;2.00;1.90;;;19.00;75.20;;;;;;5032409;28;20484;-75
2023/04/30 03:08:40;;;;;;;2.25;2.05;;;19.00;75.50;;;;;;5032989;28;20030;-75
2023/04/30 03:11:05;;;;;;;2.30;2.20;;;19.00;75.40;;;;;;5033149;28;20080;-75
2023/04/30 03:13:31;;;;;;;1.60;1.50;;;19.00;75.40;;;;;;5032797;28;20036;-76
2023/04/30 03:16:00;;;;;;;1.80;1.70;;;19.00;75.70;;;;;;5032646;28;20033;-75
2023/04/30 03:18:27;;;;;;;2.00;1.90;;;19.00;75.60;;;;;;5031917;28;20029;-75
2023/04/30 03:20:53;;;;;;;1.90;1.80;;;19.00;75.70;;;;;;5032769;28;20040;-75
2023/04/30 03:23:18;;;;;;;2.35;2.15;;;19.00;76.00;;;;;;5033008;28;20021;-76
2023/04/30 03:25:44;;;;;;;2.05;1.67;;;19.00;76.00;;;;;;5031561;28;20026;-75
2023/04/30 03:28:10;;;;;;;1.95;1.85;;;19.00;76.00;;;;;;5032862;28;20071;-75
2023/04/30 03:30:35;;;;;;;1.80;1.70;;;19.00;76.00;;;;;;5032514;28;20034;-75
2023/04/30 03:33:01;;;;;;;1.80;1.70;;;19.00;76.10;;;;;;5032811;28;20025;-75
2023/04/30 03:35:26;;;;;;;1.90;1.80;;;19.00;76.00;;;;;;5032785;28;20045;-74
2023/04/30 03:37:52;;;;;;;2.05;1.95;;;18.90;76.00;;;;;;5032431;28;20476;-75
2023/04/30 03:40:18;;;;;;;2.08;1.98;;;19.00;76.40;;;;;;5032720;28;20063;-76
2023/04/30 03:42:43;;;;;;;4.50;1.58;;;18.90;77.30;;;;;;5031253;28;20148;-75
2023/04/30 03:45:09;;;;;;;2.63;1.92;;;18.90;76.30;;;;;;5032120;28;20033;-75
2023/04/30 03:47:35;;;;;;;1.95;1.85;;;18.90;76.40;;;;;;5031372;28;20032;-75
2023/04/30 03:50:02;;;;;;;1.73;1.63;;;18.90;76.40;;;;;;5031332;28;20032;-75
2023/04/30 03:52:28;;;;;;;2.17;1.95;;;18.90;76.40;;;;;;5031244;28;20017;-75
2023/04/30 03:54:54;;;;;;;1.95;1.77;;;18.90;76.40;;;;;;5031267;28;20079;-75
2023/04/30 03:57:20;;;;;;;1.95;1.85;;;18.90;76.50;;;;;;5032124;28;20050;-75
2023/04/30 03:59:45;;;;;;;2.03;1.90;;;18.90;76.40;;;;;;5014785;28;20060;-75
2023/04/30 04:02:11;;;;;;;1.90;1.80;;;18.90;76.80;;;;;;5031037;28;20057;-75
2023/04/30 04:04:37;;;;;;;1.90;1.80;;;18.90;76.60;;;;;;5031202;28;20107;-75
2023/04/30 04:07:02;;;;;;;1.98;1.88;;;18.90;76.70;;;;;;5032313;28;20112;-76
2023/04/30 04:09:28;;;;;;;2.80;1.63;;;18.90;76.90;;;;;;5031166;28;20037;-76
2023/04/30 04:11:54;;;;;;;1.92;1.80;;;18.90;76.80;;;;;;5030700;28;20025;-76
2023/04/30 04:14:20;;;;;;;1.92;1.70;;;18.90;76.90;;;;;;5032361;28;20026;-76
2023/04/30 04:16:45;;;;;;;1.80;1.60;;;18.90;76.70;;;;;;5032152;28;20064;-75
2023/04/30 04:19:12;;;;;;;2.00;1.90;;;18.90;77.00;;;;;;5035135;28;20025;-75
2023/04/30 04:21:37;;;;;;;3.20;1.83;;;18.90;77.00;;;;;;5034977;28;20427;-75
2023/04/30 04:24:07;;;;;;;2.10;2.00;;;18.90;77.10;;;;;;5036182;28;20025;-75
2023/04/30 04:26:35;;;;;;;2.10;2.00;;;18.80;76.90;;;;;;5036040;28;20025;-75
2023/04/30 04:29:00;;;;;;;1.85;1.75;;;18.80;76.90;;;;;;5036257;28;20064;-76
2023/04/30 04:31:27;;;;;;;1.85;1.75;;;18.90;78.00;;;;;;5035040;28;20050;-75
2023/04/30 04:33:57;;;;;;;1.70;1.60;;;18.80;77.00;;;;;;5034724;28;20026;-75
2023/04/30 04:36:23;;;;;;;1.83;1.73;;;18.80;77.20;;;;;;5035997;28;20025;-75
2023/04/30 04:38:49;;;;;;;1.75;1.42;;;18.80;77.10;;;;;;5035841;28;20039;-75
2023/04/30 04:41:15;;;;;;;1.85;1.75;;;18.80;77.10;;;;;;5035722;28;20132;-76
2023/04/30 04:43:41;;;;;;;1.80;1.70;;;18.80;77.20;;;;;;5034581;28;20156;-75
2023/04/30 04:46:08;;;;;;;1.98;1.88;;;18.80;77.10;;;;;;5035563;28;20037;-75
2023/04/30 04:48:33;;;;;;;1.80;1.70;;;18.80;77.20;;;;;;5035798;28;20026;-75
2023/04/30 04:50:59;;;;;;;1.60;1.50;;;18.80;77.20;;;;;;5034462;28;20044;-75
2023/04/30 04:53:25;;;;;;;1.75;1.65;;;18.80;77.20;;;;;;5035540;28;20037;-75
2023/04/30 04:55:51;;;;;;;1.80;1.70;;;18.80;77.20;;;;;;5035194;28;20026;-75
2023/04/30 04:58:16;;;;;;;1.85;1.75;;;18.80;77.30;;;;;;5034551;28;20040;-75
2023/04/30 05:00:43;;;;;;;1.75;1.65;;;18.80;77.40;;;;;;5034378;28;20079;-75
2023/04/30 05:03:09;;;;;;;1.75;1.65;;;18.80;77.40;;;;;;5035630;28;20057;-75
2023/04/30 05:05:34;;;;;;;3.47;1.83;;;18.80;77.60;;;;;;5035899;28;20103;-75
2023/04/30 05:08:00;;;;;;;2.03;1.80;;;18.80;77.50;;;;;;5034640;28;20033;-77
2023/04/30 05:10:26;;;;;;;2.13;1.70;;;18.80;77.50;;;;;;5035923;28;20026;-78
2023/04/30 05:12:51;;;;;;;2.70;1.95;;;18.80;77.40;;;;;;5035811;28;20036;-77
2023/04/30 05:15:17;;;;;;;1.67;1.58;;;18.80;77.60;;;;;;5034649;28;20030;-77
2023/04/30 05:17:42;;;;;;;2.08;1.88;;;18.80;77.60;;;;;;5034531;28;20424;-77
2023/04/30 05:20:10;;;;;;;2.65;1.77;;;18.80;77.60;;;;;;5035791;28;20026;-76
2023/04/30 05:22:35;;;;;;;1.95;1.85;;;18.80;77.60;;;;;;5034428;28;20025;-76
2023/04/30 05:25:01;;;;;;;2.30;1.80;;;18.80;77.80;;;;;;5035639;28;20029;-77
2023/04/30 05:27:26;;;;;;;1.85;1.75;;;18.70;77.80;;;;;;5034460;28;20038;-76
2023/04/30 05:29:52;;;;;;;2.00;1.80;;;18.70;77.70;;;;;;5033386;28;20505;-76
2023/04/30 05:32:18;;;;;;;2.28;1.73;;;18.70;77.70;;;;;;5035765;28;20030;-76
2023/04/30 05:34:43;;;;;;;3.17;1.63;;;18.70;77.70;;;;;;5035498;28;20365;-75
2023/04/30 05:37:09;;;;;;;4.25;1.92;;;18.70;77.70;;;;;;5035457;28;20030;-76
2023/04/30 05:39:34;;;;;;;3.88;1.95;;;18.70;77.70;;;;;;5035174;28;20578;-76
2023/04/30 05:42:01;;;;;;;1.90;1.80;;;18.70;77.80;;;;;;5035247;28;20028;-75
2023/04/30 05:44:29;;;;;;;2.08;1.73;;;18.70;77.80;;;;;;5035275;28;20480;-76
2023/04/30 05:46:55;;;;;;;2.00;1.90;;;18.70;77.80;;;;;;5033885;28;20033;-75
2023/04/30 05:49:20;;;;;;;1.90;1.80;;;18.70;78.00;;;;;;5035193;28;20021;-75
2023/04/30 05:51:46;;;;;;;1.90;1.80;;;18.70;78.00;;;;;;5035023;28;20396;-75
2023/04/30 05:54:11;;;;;;;2.85;1.60;;;18.70;77.90;;;;;;5033883;28;20573;-76
2023/04/30 05:56:37;;;;;;;1.90;1.80;;;18.70;77.90;;;;;;5034756;28;20521;-75
2023/04/30 05:59:03;;;;;;;1.80;1.70;;;18.70;78.10;;;;;;5034970;28;20026;-75
2023/04/30 06:01:28;;;;;;;2.15;2.05;;;18.70;78.10;;;;;;5034943;28;20088;-76
2023/04/30 06:03:54;;;;;;;2.10;1.90;;;18.70;78.00;;;;;;5034932;28;20025;-75
2023/04/30 06:06:20;;;;;;;1.77;1.67;;;18.70;78.10;;;;;;5033916;28;20508;-75
2023/04/30 06:08:45;;;;;;;2.38;1.60;;;18.70;78.20;;;;;;5034622;28;20025;-75
2023/04/30 06:11:11;;;;;;;1.88;1.75;;;18.70;78.10;;;;;;5034830;28;20025;-75
2023/04/30 06:13:38;;;;;;;2.17;1.80;;;18.70;78.20;;;;;;5033625;28;20506;-75
2023/04/30 06:16:04;;;;;;;1.73;1.63;;;18.70;78.20;;;;;;5033533;28;20395;-76
2023/04/30 06:18:30;;;;;;;1.90;1.67;;;18.70;78.30;;;;;;5033691;28;20025;-75
2023/04/30 06:20:55;;;;;;;1.88;1.70;;;18.70;78.20;;;;;;5034964;28;20075;-76
2023/04/30 06:23:21;;;;;;;7.05;1.65;;;18.70;78.40;;;;;;5034473;28;20113;-75
2023/04/30 06:25:47;;;;;;;1.90;1.80;;;18.70;78.30;;;;;;5034684;28;20064;-75
2023/04/30 06:28:12;;;;;;;1.90;1.80;;;18.70;78.50;;;;;;5033576;28;20048;-75
2023/04/30 06:30:38;;;;;;;1.70;1.60;;;18.70;78.50;;;;;;5034570;28;20032;-75
2023/04/30 06:33:03;;;;;;;1.80;1.70;;;18.70;78.60;;;;;;5033166;28;20032;-75
2023/04/30 06:35:29;;;;;;;1.90;1.80;;;18.70;78.60;;;;;;5033204;28;20365;-75
2023/04/30 06:37:55;;;;;;;1.83;1.73;;;18.70;78.70;;;;;;5034076;28;20097;-75
2023/04/30 06:40:20;;;;;;;2.42;1.90;;;18.70;78.70;;;;;;5034433;28;20021;-75
2023/04/30 06:42:46;;;;;;;2.80;2.00;;;18.70;78.70;;;;;;5034151;28;20017;-75
2023/04/30 06:45:14;;;;;;;1.67;1.58;;;18.70;78.80;;;;;;5034071;28;20499;-75
2023/04/30 06:47:41;;;;;;;1.67;1.58;;;18.70;78.80;;;;;;5032924;28;20021;-75
2023/04/30 06:50:07;;;;;;;1.80;1.70;;;18.60;78.80;;;;;;5032710;28;20522;-73
2023/04/30 06:52:33;;;;;;;4.32;1.83;;;18.70;78.90;;;;;;5033865;28;20072;-75
2023/04/30 06:54:59;;;;;;;1.70;1.60;;;18.70;78.70;;;;;;5032326;28;20033;-75
2023/04/30 06:57:26;;;;;;;2.58;2.08;;;18.70;78.70;;;;;;5032242;28;20056;-75
2023/04/30 06:59:52;;;;;;;5.15;2.00;;;18.70;78.60;;;;;;5032618;28;20026;-75
2023/04/30 07:02:17;;;;;;;1.80;1.70;;;18.70;78.50;;;;;;5033903;28;20021;-75
2023/04/30 07:04:43;;;;;;;2.20;2.00;;;18.70;78.40;;;;;;5032342;28;20033;-76
2023/04/30 07:07:09;;;;;;;1.95;1.85;;;18.70;78.40;;;;;;5032495;28;20058;-76
2023/04/30 07:09:35;;;;;;;4.20;2.08;;;18.70;78.30;;;;;;5033721;28;20064;-75
2023/04/30 07:12:00;;;;;;;1.70;1.60;;;18.70;78.40;;;;;;5032273;28;20026;-75
2023/04/30 07:14:26;;;;;;;1.83;1.73;;;18.60;78.30;;;;;;5032701;28;20030;-75
2023/04/30 07:16:52;;;;;;;1.90;1.80;;;18.60;78.50;;;;;;5032222;28;20500;-76
2023/04/30 07:19:18;;;;;;;1.83;1.73;;;18.60;78.40;;;;;;5032268;28;20035;-76
2023/04/30 07:21:43;;;;;;;2.20;2.05;;;18.60;78.50;;;;;;5032145;28;20022;-76
2023/04/30 07:24:09;;;;;;;1.98;1.88;;;18.70;78.60;;;;;;5033524;28;20021;-76
2023/04/30 07:26:35;;;;;;;2.00;1.90;;;18.60;78.60;;;;;;5032118;28;20033;-75
2023/04/30 07:29:01;;;;;;;1.60;1.50;;;18.60;78.60;;;;;;5031920;28;20036;-76
2023/04/30 07:31:27;;;;;;;2.20;2.05;;;18.60;78.60;;;;;;5015534;28;20413;-76
2023/04/30 07:33:54;;;;;;;2.63;1.98;;;18.60;78.60;;;;;;5033065;28;20118;-75
2023/04/30 07:36:20;;;;;;;1.60;1.50;;;18.60;78.60;;;;;;5033128;28;20476;-76
2023/04/30 07:38:46;;;;;;;2.08;1.90;;;18.60;78.70;;;;;;5032929;28;20020;-76
2023/04/30 07:41:12;;;;;;;2.03;1.83;;;18.60;78.80;;;;;;5033121;28;20021;-76
2023/04/30 07:43:37;;;;;;;2.33;1.90;;;18.60;78.70;;;;;;5032160;28;20030;-77
2023/04/30 07:46:03;;;;;;;2.05;1.90;;;18.60;78.70;;;;;;5032931;28;20036;-76
2023/04/30 07:48:29;;;;;;;1.77;1.67;;;18.60;78.80;;;;;;5031909;28;20361;-77
2023/04/30 07:50:55;;;;;;;1.70;1.60;;;18.60;78.80;;;;;;5032902;28;20046;-76
2023/04/30 07:53:22;;;;;;;3.00;1.88;;;18.60;78.80;;;;;;5031056;28;20520;-75
2023/04/30 07:55:47;;;;;;;8.57;2.22;;;18.60;78.80;;;;;;5032816;28;20557;-76
2023/04/30 07:58:13;;;;;;;1.92;1.83;;;18.60;79.90;;;;;;5033288;28;20033;-75
2023/04/30 08:00:39;;;;;;;2.45;2.00;;;18.60;78.80;;;;;;5033127;28;20025;-75
2023/04/30 08:03:04;;;;;;;2.00;1.90;;;18.60;78.90;;;;;;5032744;28;20465;-75
2023/04/30 08:05:30;;;;;;;2.05;1.90;;;18.60;78.90;;;;;;5032742;28;20026;-75
2023/04/30 08:07:56;;;;;;;2.35;2.10;;;18.60;78.80;;;;;;5032688;28;20022;-76
2023/04/30 08:10:21;;;;;;;2.10;1.60;;;18.60;78.90;;;;;;5031782;28;20075;-75
2023/04/30 08:12:47;;;;;;;2.03;1.92;;;18.60;78.90;;;;;;5031837;28;20134;-75
2023/04/30 08:15:13;;;;;;;1.92;1.75;;;18.60;79.00;;;;;;5032964;28;20022;-75
2023/04/30 08:17:39;;;;;;;1.70;1.60;;;18.60;78.90;;;;;;5032820;28;20025;-76
2023/04/30 08:20:05;;;;;;;2.85;1.75;;;18.60;79.00;;;;;;5032401;28;20025;-75
2023/04/30 08:22:31;;;;;;;1.73;1.63;;;18.60;79.00;;;;;;5031494;28;20022;-76
2023/04/30 08:24:57;;;;;;;1.95;1.85;;;18.60;79.00;;;;;;5031507;28;20049;-75
2023/04/30 08:27:22;;;;;;;2.17;1.60;;;18.60;79.00;;;;;;5031390;28;20033;-76
2023/04/30 08:29:48;;;;;;;1.65;1.55;;;18.60;79.00;;;;;;5032738;28;20021;-75
2023/04/30 08:32:14;;;;;;;1.67;1.58;;;18.60;79.00;;;;;;5031408;28;20037;-75
2023/04/30 08:34:40;;;;;;;3.38;1.60;;;18.60;79.00;;;;;;5031303;28;20112;-75
2023/04/30 08:37:06;;;;;;;1.80;1.70;;;18.60;79.00;;;;;;5031985;28;20109;-76
2023/04/30 08:39:32;;;;;;;2.08;1.88;;;18.60;79.00;;;;;;5032008;28;20025;-76
2023/04/30 08:42:01;;;;;;;1.90;1.80;;;18.60;79.10;;;;;;5032059;28;20404;-76
2023/04/30 08:44:27;;;;;;;1.60;1.50;;;18.60;79.00;;;;;;5030583;28;20049;-75
2023/04/30 08:46:53;;;;;;;1.77;1.67;;;18.60;79.10;;;;;;5030632;28;20120;-75
2023/04/30 08:49:22;;;;;;;1.85;1.70;;;18.60;79.20;;;;;;5030645;28;20021;-76
2023/04/30 08:51:48;;;;;;;3.10;2.00;;;18.60;79.10;;;;;;5030829;28;20029;-76
2023/04/30 08:54:14;;;;;;;1.80;1.70;;;18.60;79.20;;;;;;5030446;28;20079;-76
2023/04/30 08:56:40;;;;;;;1.70;1.60;;;18.60;79.10;;;;;;5030537;28;20057;-77
2023/04/30 08:59:06;;;;;;;2.03;1.80;;;18.60;79.20;;;;;;5030601;28;20014;-75
2023/04/30 09:01:33;;;;;;;1.55;1.45;;;18.60;79.30;;;;;;5030781;28;20030;-75
2023/04/30 09:03:58;;;;;;;1.63;1.40;;;18.60;79.20;;;;;;5014537;28;20060;-75
2023/04/30 09:06:24;;;;;;;1.58;1.48;;;18.60;79.20;;;;;;5035708;28;20033;-76
2023/04/30 09:08:51;;;;;;;1.60;1.48;;;18.60;79.20;;;;;;5035340;28;20025;-75
2023/04/30 09:11:27;;;;;;;1.50;1.40;;;18.60;79.20;;;;;;5035285;28;20033;-75
2023/04/30 09:14:02;;;;;;;1.50;1.38;;;18.60;79.30;;;;;;5034255;28;20113;-75
2023/04/30 09:16:31;;;;;;;2.05;1.58;;;18.60;79.30;;;;;;5033902;28;20480;-75
2023/04/30 09:18:57;;;;;;;1.90;1.73;;;18.60;79.30;;;;;;5034088;28;20056;-76
2023/04/30 09:21:33;;;;;;;4.70;1.65;;;18.60;79.30;;;;;;5035046;28;20057;-75
2023/04/30 09:24:00;;;;;;;1.75;1.52;;;18.60;79.30;;;;;;5035122;28;20041;-75
2023/04/30 09:26:46;;;;;;;1.35;1.35;;;18.60;79.30;;;;;;5033986;28;20104;-75
2023/04/30 09:29:12;;;;;;;1.30;1.20;;;18.60;79.30;;;;;;5032667;28;20040;-74
2023/04/30 09:31:41;;;;;;;1.58;1.48;;;18.60;79.30;;;;;;5028507;28;20034;-75
2023/04/30 09:34:07;;;;;;;1.60;1.50;;;18.60;79.30;;;;;;5032975;28;20052;-74
2023/04/30 09:36:33;;;;;;;1.40;1.30;;;18.60;79.40;;;;;;5034335;28;20072;-75
2023/04/30 09:39:12;;;;;;;1.77;1.30;;;18.60;79.40;;;;;;5033090;28;20021;-75
2023/04/30 09:41:38;;;;;;;1.50;1.40;;;18.60;79.30;;;;;;5033073;28;20476;-74
2023/04/30 09:44:04;;;;;;;1.42;1.35;;;18.60;79.30;;;;;;5032812;28;20014;-75
2023/04/30 09:46:34;;;;;;;1.52;1.42;;;18.60;79.40;;;;;;5033833;28;20049;-75
2023/04/30 09:49:01;;;;;;;1.40;1.30;;;18.60;79.30;;;;;;5033016;28;20084;-75
2023/04/30 09:51:27;;;;;;;1.38;1.27;;;18.60;79.30;;;;;;5032710;28;20396;-75
2023/04/30 09:53:53;;;;;;;1.40;1.30;;;18.60;79.40;;;;;;5032760;28;20022;-75
2023/04/30 09:56:25;;;;;;;1.13;1.13;;;18.60;79.30;;;;;;5032398;28;20057;-75
2023/04/30 09:58:55;;;;;;;1.50;1.40;;;18.60;79.30;;;;;;5033996;28;20045;-75
2023/04/30 10:01:22;;;;;;;1.10;1.08;;;18.60;79.30;;;;;;5032282;28;20061;-76
2023/04/30 10:03:48;;;;;;;1.35;1.20;;;18.60;79.30;;;;;;5032778;28;20589;-74
2023/04/30 10:06:18;;;;;;;1.20;1.10;;;18.60;79.30;;;;;;5032548;28;20467;-76
2023/04/30 10:08:46;;;;;;;1.48;1.23;;;18.60;79.30;;;;;;5033663;28;20116;-75
2023/04/30 10:11:15;;;;;;;1.40;1.30;;;18.60;79.30;;;;;;5032387;28;20476;-77
2023/04/30 10:14:01;;;;;;;3.47;1.42;;;18.60;79.30;;;;;;5032650;28;20034;-75
2023/04/30 10:16:56;;;;;;;1.05;1.05;;;18.60;79.30;;;;;;5031655;28;20025;-75
2023/04/30 10:19:24;;;;;;;1.05;1.00;;;18.60;79.30;;;;;;5032528;28;20084;-76
2023/04/30 10:21:49;;;;;;;1.10;1.10;;;18.60;79.30;;;;;;5032299;28;20021;-75
2023/04/30 10:24:18;;;;;;;0.95;0.95;;;18.60;79.30;;;;;;5032039;28;20024;-73
2023/04/30 10:26:44;;;;;;;1.58;1.15;;;18.60;79.30;;;;;;5031905;28;20025;-74
2023/04/30 10:29:10;;;;;;;0.88;0.88;;;18.60;79.20;;;;;;5031854;28;20515;-75
2023/04/30 10:31:36;;;;;;;1.55;1.10;;;18.60;79.00;;;;;;5031921;28;20037;-74
2023/04/30 10:34:39;;;;;;;1.98;1.25;;;18.60;78.90;;;;;;5028221;28;20038;-73
2023/04/30 10:37:23;;;;;;;1.02;0.93;;;18.60;78.70;;;;;;5037696;28;20052;-73
2023/04/30 10:39:50;;;;;;;1.10;1.10;;;18.70;78.20;;;;;;5046886;28;20055;-73
2023/04/30 10:42:15;;;;;;;0.77;0.77;;;18.90;77.80;;;;;;5052786;28;20025;-73
2023/04/30 10:44:41;;;;;;;1.50;0.98;;;19.00;77.60;;;;;;5034366;28;20044;-73
2023/04/30 10:47:07;;;;;;;1.45;1.10;;;19.10;77.30;;;;;;5012923;28;20476;-73
2023/04/30 10:49:33;;;;;;;1.00;1.00;;;19.10;77.10;;;;;;5014199;28;20050;-73
2023/04/30 10:52:01;;;;;;;1.23;0.98;;;19.10;77.00;;;;;;5027755;28;20063;-73
2023/04/30 10:54:28;;;;;;;1.05;0.70;;;19.20;76.90;;;;;;5032783;28;20032;-73
2023/04/30 10:57:13;;;;;;;0.70;0.70;;;19.20;76.60;;;;;;5033643;28;20077;-73
2023/04/30 10:59:46;;;;;;;1.00;1.00;;;19.30;76.50;;;;;;5033833;28;20022;-73
2023/04/30 11:02:14;;;;;;;0.90;0.90;;;19.30;76.20;;;;;;5033694;28;20111;-73
2023/04/30 11:05:07;;;;;;;0.80;0.80;;;19.40;76.10;;;;;;5031738;28;20026;-73
2023/04/30 11:07:33;;;;;;;1.02;0.80;;;19.40;76.00;;;;;;5033622;28;20026;-73
2023/04/30 11:09:59;;;;;;;1.63;0.90;;;19.50;75.80;;;;;;5047688;28;20048;-73
2023/04/30 11:12:28;;;;;;;0.93;0.80;;;19.50;75.50;;;;;;5039389;28;20112;-73
2023/04/30 11:15:11;;;;;;;2.15;0.80;;;19.60;75.40;;;;;;5048081;28;20017;-73
2023/04/30 11:17:36;;;;;;;0.80;0.80;;;19.60;75.40;;;;;;5032202;28;20025;-73
2023/04/30 11:20:03;;;;;;;0.65;0.65;;;19.70;75.40;;;;;;5044297;28;20021;-74
2023/04/30 11:22:35;;;;;;;0.70;0.70;;;19.70;75.20;;;;;;5052129;28;20036;-74
2023/04/30 11:25:12;;;;;;;1.00;0.70;;;19.70;75.20;;;;;;5036302;28;20024;-74
2023/04/30 11:27:41;;;;;;;0.70;0.70;;;19.80;74.80;;;;;;5047951;28;20033;-73
2023/04/30 11:30:11;;;;;;;0.60;0.60;;;19.80;74.70;;;;;;5032722;28;20026;-74
2023/04/30 11:32:38;;;;;;;0.80;0.80;;;19.80;74.60;;;;;;5032105;28;20562;-73
2023/04/30 11:35:04;;;;;;;0.85;0.85;;;19.80;74.60;;;;;;5032085;28;20042;-73
2023/04/30 11:37:35;;;;;;;0.70;0.70;;;19.90;74.50;;;;;;5015423;28;20026;-74
2023/04/30 11:40:07;;;;;;;0.70;0.70;;;19.90;74.40;;;;;;5033008;28;20021;-74
2023/04/30 11:42:38;;;;;;;0.60;0.60;;;19.90;74.30;;;;;;5031905;28;20045;-73
2023/04/30 11:45:07;;;;;;;0.70;0.70;;;19.90;74.10;;;;;;5032861;28;20036;-74
2023/04/30 11:47:40;;;;;;;0.60;0.60;;;20.00;74.10;;;;;;5012151;28;20037;-74
2023/04/30 11:50:06;;;;;;;;;;;20.00;74.00;;;;;;5013770;28;20376;-72
2023/04/30 11:52:32;;;;;;;0.75;0.75;;;20.00;74.10;;;;;;5017858;28;19905;-73
2023/04/30 11:54:59;;;;;;;0.80;0.80;;;20.00;73.90;;;;;;5032885;28;20036;-73
2023/04/30 11:57:24;;;;;;;0.70;0.70;;;20.00;74.00;;;;;;5032610;28;20408;-72
2023/04/30 11:59:52;;;;;;;0.80;0.80;;;20.00;73.80;;;;;;5031906;28;20052;-72
2023/04/30 12:02:17;;;;;;;0.60;0.60;;;20.10;73.80;;;;;;5032958;28;20013;-72
2023/04/30 12:04:43;;;;;;;0.77;0.77;;;20.10;73.70;;;;;;5031912;28;20017;-72
2023/04/30 12:07:09;;;;;;;1.20;0.82;;;20.10;73.60;;;;;;5032863;28;20057;-72
2023/04/30 12:09:54;;;;;;;0.80;0.80;;;20.10;73.60;;;;;;5022688;28;20038;-72
2023/04/30 12:12:29;;;;;;;0.85;0.80;;;20.20;73.50;;;;;;5022521;28;20026;-72
2023/04/30 12:14:55;;;;;;;0.57;0.57;;;20.10;73.40;;;;;;5032453;28;20026;-72
2023/04/30 12:17:31;;;;;;;0.75;0.70;;;20.20;73.40;;;;;;5016901;28;20022;-72
2023/04/30 12:19:57;;;;;;;0.93;0.70;;;20.20;73.20;;;;;;5039096;28;20064;-72
2023/04/30 12:22:23;;;;;;;0.57;0.57;;;20.20;73.30;;;;;;5050293;28;20561;-72
2023/04/30 12:24:48;;;;;;;0.60;0.60;;;20.20;73.20;;;;;;5034355;28;20037;-73
2023/04/30 12:27:14;;;;;;;0.90;0.70;;;20.20;73.10;;;;;;5017038;28;20018;-73
2023/04/30 12:29:43;;;;;;;0.50;0.50;;;20.30;73.20;;;;;;5012555;28;20030;-73
2023/04/30 12:32:08;;;;;;;0.70;0.70;;;20.30;73.00;;;;;;5011244;28;20064;-72
2023/04/30 12:34:36;;;;;;;0.60;0.60;;;20.30;73.00;;;;;;5011246;28;20485;-72
2023/04/30 12:37:02;;;;;;;0.60;0.60;;;20.30;73.00;;;;;;5011162;28;20064;-72
2023/04/30 12:39:32;;;;;;;0.68;0.68;;;20.30;72.80;;;;;;5013926;28;20030;-72
2023/04/30 12:41:59;;;;;;;0.50;0.50;;;20.30;72.90;;;;;;5015164;28;20071;-72
2023/04/30 12:44:26;;;;;;;0.60;0.60;;;20.30;72.90;;;;;;5016068;28;20093;-72
2023/04/30 12:46:56;;;;;;;0.60;0.60;;;20.30;72.90;;;;;;5033810;28;20030;-72
2023/04/30 12:49:26;;;;;;;0.75;0.60;;;20.30;72.80;;;;;;5034349;28;20026;-72